sensor_id;sensor_type;location;lat;lon;timestamp;temperature;humidity
22418;DHT22;11376;50.932;4.442;2023-05-19T00:00:56;10.70;99.90
22418;DHT22;11376;50.932;4.442;2023-05-19T00:03:23;10.70;99.90
22418;DHT22;11376;50.932;4.442;2023-05-19T00:05:52;10.60;99.90
22418;DHT22;11376;50.932;4.442;2023-05-19T00:08:19;10.60;99.90
22418;DHT22;11376;50.932;4.442;2023-05-19T00:10:45;10.60;99.90
22418;DHT22;11376;50.932;4.442;2023-05-19T00:13:11;10.60;99.90
22418;DHT22;11376;50.932;4.442;2023-05-19T00:15:37;10.50;99.90
22418;DHT22;11376;50.932;4.442;2023-05-19T00:18:03;10.50;99.90
22418;DHT22;11376;50.932;4.442;2023-05-19T00:20:28;10.50;99.90
22418;DHT22;11376;50.932;4.442;2023-05-19T00:22:54;10.50;99.90
22418;DHT22;11376;50.932;4.442;2023-05-19T00:25:20;10.60;99.90
22418;DHT22;11376;50.932;4.442;2023-05-19T00:27:46;10.50;99.90
22418;DHT22;11376;50.932;4.442;2023-05-19T00:30:12;10.40;99.90
22418;DHT22;11376;50.932;4.442;2023-05-19T00:32:38;10.50;99.90
22418;DHT22;11376;50.932;4.442;2023-05-19T00:35:04;10.60;99.90
22418;DHT22;11376;50.932;4.442;2023-05-19T00:37:30;10.50;99.90
22418;DHT22;11376;50.932;4.442;2023-05-19T00:39:55;10.40;99.90
22418;DHT22;11376;50.932;4.442;2023-05-19T00:42:22;10.30;99.90
22418;DHT22;11376;50.932;4.442;2023-05-19T00:44:48;10.30;99.90
22418;DHT22;11376;50.932;4.442;2023-05-19T00:47:14;10.30;99.90
22418;DHT22;11376;50.932;4.442;2023-05-19T00:49:40;10.20;99.90
22418;DHT22;11376;50.932;4.442;2023-05-19T00:52:06;10.30;99.90
22418;DHT22;11376;50.932;4.442;2023-05-19T00:54:35;10.30;99.90
22418;DHT22;11376;50.932;4.442;2023-05-19T00:57:01;10.40;99.90
22418;DHT22;11376;50.932;4.442;2023-05-19T00:59:27;10.30;99.90
22418;DHT22;11376;50.932;4.442;2023-05-19T01:01:53;10.30;99.90
22418;DHT22;11376;50.932;4.442;2023-05-19T01:04:19;10.20;99.90
22418;DHT22;11376;50.932;4.442;2023-05-19T01:06:47;10.10;99.90
22418;DHT22;11376;50.932;4.442;2023-05-19T01:09:15;10.10;99.90
22418;DHT22;11376;50.932;4.442;2023-05-19T01:11:41;10.00;99.90
22418;DHT22;11376;50.932;4.442;2023-05-19T01:14:07;10.00;99.90
22418;DHT22;11376;50.932;4.442;2023-05-19T01:22:17;9.90;99.90
22418;DHT22;11376;50.932;4.442;2023-05-19T01:25:21;9.90;99.90
22418;DHT22;11376;50.932;4.442;2023-05-19T01:30:41;9.90;99.90
22418;DHT22;11376;50.932;4.442;2023-05-19T01:33:10;9.80;99.90
22418;DHT22;11376;50.932;4.442;2023-05-19T01:35:39;9.80;99.90
22418;DHT22;11376;50.932;4.442;2023-05-19T01:38:09;9.70;99.90
22418;DHT22;11376;50.932;4.442;2023-05-19T01:40:37;9.80;99.90
22418;DHT22;11376;50.932;4.442;2023-05-19T01:43:04;9.80;99.90
22418;DHT22;11376;50.932;4.442;2023-05-19T01:45:32;9.70;99.90
22418;DHT22;11376;50.932;4.442;2023-05-19T01:48:00;9.80;99.90
22418;DHT22;11376;50.932;4.442;2023-05-19T01:50:27;9.70;99.90
22418;DHT22;11376;50.932;4.442;2023-05-19T01:52:53;9.70;99.90
22418;DHT22;11376;50.932;4.442;2023-05-19T01:55:19;9.70;99.90
22418;DHT22;11376;50.932;4.442;2023-05-19T02:01:06;9.50;99.90
22418;DHT22;11376;50.932;4.442;2023-05-19T02:11:46;9.40;99.90
22418;DHT22;11376;50.932;4.442;2023-05-19T02:17:17;9.50;99.90
22418;DHT22;11376;50.932;4.442;2023-05-19T02:19:43;9.40;99.90
22418;DHT22;11376;50.932;4.442;2023-05-19T02:22:09;9.40;99.90
22418;DHT22;11376;50.932;4.442;2023-05-19T02:24:35;9.30;99.90
22418;DHT22;11376;50.932;4.442;2023-05-19T02:27:02;9.30;99.90
22418;DHT22;11376;50.932;4.442;2023-05-19T02:29:28;9.30;99.90
22418;DHT22;11376;50.932;4.442;2023-05-19T02:31:54;9.40;99.90
22418;DHT22;11376;50.932;4.442;2023-05-19T02:34:19;9.40;99.90
22418;DHT22;11376;50.932;4.442;2023-05-19T02:36:45;9.20;99.90
22418;DHT22;11376;50.932;4.442;2023-05-19T02:39:14;9.10;99.90
22418;DHT22;11376;50.932;4.442;2023-05-19T02:41:40;9.20;99.90
22418;DHT22;11376;50.932;4.442;2023-05-19T02:44:06;9.10;99.90
22418;DHT22;11376;50.932;4.442;2023-05-19T02:46:32;9.10;99.90
22418;DHT22;11376;50.932;4.442;2023-05-19T02:48:58;9.00;99.90
22418;DHT22;11376;50.932;4.442;2023-05-19T02:51:24;9.00;99.90
22418;DHT22;11376;50.932;4.442;2023-05-19T02:53:50;9.00;99.90
22418;DHT22;11376;50.932;4.442;2023-05-19T02:56:15;9.10;99.90
22418;DHT22;11376;50.932;4.442;2023-05-19T02:58:41;9.20;99.90
22418;DHT22;11376;50.932;4.442;2023-05-19T03:01:08;9.10;99.90
22418;DHT22;11376;50.932;4.442;2023-05-19T03:03:34;9.00;99.90
22418;DHT22;11376;50.932;4.442;2023-05-19T03:06:00;9.00;99.90
22418;DHT22;11376;50.932;4.442;2023-05-19T03:08:27;9.00;99.90
22418;DHT22;11376;50.932;4.442;2023-05-19T03:10:52;9.00;99.90
22418;DHT22;11376;50.932;4.442;2023-05-19T03:13:18;9.00;99.90
22418;DHT22;11376;50.932;4.442;2023-05-19T03:15:44;8.90;99.90
22418;DHT22;11376;50.932;4.442;2023-05-19T03:18:10;8.90;99.90
22418;DHT22;11376;50.932;4.442;2023-05-19T03:20:38;8.90;99.90
22418;DHT22;11376;50.932;4.442;2023-05-19T03:23:06;8.90;99.90
22418;DHT22;11376;50.932;4.442;2023-05-19T03:25:33;8.80;99.90
22418;DHT22;11376;50.932;4.442;2023-05-19T03:27:59;8.80;99.90
22418;DHT22;11376;50.932;4.442;2023-05-19T03:30:24;8.80;99.90
22418;DHT22;11376;50.932;4.442;2023-05-19T03:32:50;8.70;99.90
22418;DHT22;11376;50.932;4.442;2023-05-19T03:35:16;8.70;99.90
22418;DHT22;11376;50.932;4.442;2023-05-19T03:37:42;8.60;99.90
22418;DHT22;11376;50.932;4.442;2023-05-19T03:40:08;8.60;99.90
22418;DHT22;11376;50.932;4.442;2023-05-19T03:42:35;8.60;99.90
22418;DHT22;11376;50.932;4.442;2023-05-19T03:45:01;8.60;99.90
22418;DHT22;11376;50.932;4.442;2023-05-19T03:47:27;8.50;99.90
22418;DHT22;11376;50.932;4.442;2023-05-19T03:49:52;8.60;99.90
22418;DHT22;11376;50.932;4.442;2023-05-19T03:52:18;8.70;99.90
22418;DHT22;11376;50.932;4.442;2023-05-19T03:54:44;8.70;99.90
22418;DHT22;11376;50.932;4.442;2023-05-19T03:57:09;8.70;99.90
22418;DHT22;11376;50.932;4.442;2023-05-19T03:59:36;8.70;99.90
22418;DHT22;11376;50.932;4.442;2023-05-19T04:02:02;8.70;99.90
22418;DHT22;11376;50.932;4.442;2023-05-19T04:04:28;8.50;99.90
22418;DHT22;11376;50.932;4.442;2023-05-19T04:06:54;8.50;99.90
22418;DHT22;11376;50.932;4.442;2023-05-19T04:09:20;8.40;99.90
22418;DHT22;11376;50.932;4.442;2023-05-19T04:11:45;8.40;99.90
22418;DHT22;11376;50.932;4.442;2023-05-19T04:14:11;8.30;99.90
22418;DHT22;11376;50.932;4.442;2023-05-19T04:16:37;8.30;99.90
22418;DHT22;11376;50.932;4.442;2023-05-19T04:19:03;8.30;99.90
22418;DHT22;11376;50.932;4.442;2023-05-19T04:21:28;8.30;99.90
22418;DHT22;11376;50.932;4.442;2023-05-19T04:23:54;8.30;99.90
22418;DHT22;11376;50.932;4.442;2023-05-19T04:26:20;8.40;99.90
22418;DHT22;11376;50.932;4.442;2023-05-19T04:28:47;8.50;99.90
22418;DHT22;11376;50.932;4.442;2023-05-19T04:31:13;8.50;99.90
22418;DHT22;11376;50.932;4.442;2023-05-19T04:33:40;8.50;99.90
22418;DHT22;11376;50.932;4.442;2023-05-19T04:36:07;8.60;99.90
22418;DHT22;11376;50.932;4.442;2023-05-19T04:38:35;8.70;99.90
22418;DHT22;11376;50.932;4.442;2023-05-19T04:41:02;8.70;99.90
22418;DHT22;11376;50.932;4.442;2023-05-19T04:43:28;8.60;99.90
22418;DHT22;11376;50.932;4.442;2023-05-19T04:45:54;8.80;99.90
22418;DHT22;11376;50.932;4.442;2023-05-19T04:48:22;8.80;99.90
22418;DHT22;11376;50.932;4.442;2023-05-19T04:50:48;8.80;99.90
22418;DHT22;11376;50.932;4.442;2023-05-19T04:53:14;8.80;99.90
22418;DHT22;11376;50.932;4.442;2023-05-19T04:55:40;8.90;99.90
22418;DHT22;11376;50.932;4.442;2023-05-19T04:58:06;9.00;99.90
22418;DHT22;11376;50.932;4.442;2023-05-19T05:00:32;9.00;99.90
22418;DHT22;11376;50.932;4.442;2023-05-19T05:03:00;9.10;99.90
22418;DHT22;11376;50.932;4.442;2023-05-19T05:05:30;9.10;99.90
22418;DHT22;11376;50.932;4.442;2023-05-19T05:07:56;9.30;99.90
22418;DHT22;11376;50.932;4.442;2023-05-19T05:10:23;9.40;99.90
22418;DHT22;11376;50.932;4.442;2023-05-19T05:12:49;9.30;99.90
22418;DHT22;11376;50.932;4.442;2023-05-19T05:15:15;9.30;99.90
22418;DHT22;11376;50.932;4.442;2023-05-19T05:17:41;9.40;99.90
22418;DHT22;11376;50.932;4.442;2023-05-19T05:20:08;9.50;99.90
22418;DHT22;11376;50.932;4.442;2023-05-19T05:22:34;9.60;99.90
22418;DHT22;11376;50.932;4.442;2023-05-19T05:25:01;9.60;99.90
22418;DHT22;11376;50.932;4.442;2023-05-19T05:27:27;9.70;99.90
22418;DHT22;11376;50.932;4.442;2023-05-19T05:29:53;9.70;99.90
22418;DHT22;11376;50.932;4.442;2023-05-19T05:32:18;9.70;99.90
22418;DHT22;11376;50.932;4.442;2023-05-19T05:34:44;9.80;99.90
22418;DHT22;11376;50.932;4.442;2023-05-19T05:37:10;9.80;99.90
22418;DHT22;11376;50.932;4.442;2023-05-19T05:39:36;9.80;99.90
22418;DHT22;11376;50.932;4.442;2023-05-19T05:42:02;9.90;99.90
22418;DHT22;11376;50.932;4.442;2023-05-19T05:44:27;9.90;99.90
22418;DHT22;11376;50.932;4.442;2023-05-19T05:46:54;9.90;99.90
22418;DHT22;11376;50.932;4.442;2023-05-19T05:49:20;10.00;99.90
22418;DHT22;11376;50.932;4.442;2023-05-19T05:51:46;10.10;99.90
22418;DHT22;11376;50.932;4.442;2023-05-19T05:54:12;10.20;99.90
22418;DHT22;11376;50.932;4.442;2023-05-19T05:56:38;10.20;99.90
22418;DHT22;11376;50.932;4.442;2023-05-19T05:59:05;10.40;99.90
22418;DHT22;11376;50.932;4.442;2023-05-19T06:01:31;10.50;99.90
22418;DHT22;11376;50.932;4.442;2023-05-19T06:03:57;10.60;99.90
22418;DHT22;11376;50.932;4.442;2023-05-19T06:06:23;10.70;99.90
22418;DHT22;11376;50.932;4.442;2023-05-19T06:08:48;10.80;99.90
22418;DHT22;11376;50.932;4.442;2023-05-19T06:11:14;10.90;99.90
22418;DHT22;11376;50.932;4.442;2023-05-19T06:13:40;11.10;99.90
22418;DHT22;11376;50.932;4.442;2023-05-19T06:16:06;11.10;99.90
22418;DHT22;11376;50.932;4.442;2023-05-19T06:18:32;11.10;99.90
22418;DHT22;11376;50.932;4.442;2023-05-19T06:20:58;11.20;99.90
22418;DHT22;11376;50.932;4.442;2023-05-19T06:23:23;11.30;99.90
22418;DHT22;11376;50.932;4.442;2023-05-19T06:25:51;11.40;99.90
22418;DHT22;11376;50.932;4.442;2023-05-19T06:28:17;11.50;99.90
22418;DHT22;11376;50.932;4.442;2023-05-19T06:30:42;11.50;99.90
22418;DHT22;11376;50.932;4.442;2023-05-19T06:33:08;11.70;99.90
22418;DHT22;11376;50.932;4.442;2023-05-19T06:35:34;11.80;99.90
22418;DHT22;11376;50.932;4.442;2023-05-19T06:38:00;11.70;99.90
22418;DHT22;11376;50.932;4.442;2023-05-19T06:40:25;11.80;99.90
22418;DHT22;11376;50.932;4.442;2023-05-19T06:42:51;11.80;99.90
22418;DHT22;11376;50.932;4.442;2023-05-19T06:45:17;12.00;99.90
22418;DHT22;11376;50.932;4.442;2023-05-19T06:47:46;12.00;99.90
22418;DHT22;11376;50.932;4.442;2023-05-19T06:50:12;12.20;99.90
22418;DHT22;11376;50.932;4.442;2023-05-19T06:52:38;12.20;99.90
22418;DHT22;11376;50.932;4.442;2023-05-19T06:55:04;12.30;99.90
22418;DHT22;11376;50.932;4.442;2023-05-19T06:57:30;12.40;99.90
22418;DHT22;11376;50.932;4.442;2023-05-19T06:59:56;12.70;99.90
22418;DHT22;11376;50.932;4.442;2023-05-19T07:02:21;12.70;99.90
22418;DHT22;11376;50.932;4.442;2023-05-19T07:04:47;12.70;99.90
22418;DHT22;11376;50.932;4.442;2023-05-19T07:07:13;12.80;99.90
22418;DHT22;11376;50.932;4.442;2023-05-19T07:09:38;12.90;99.90
22418;DHT22;11376;50.932;4.442;2023-05-19T07:12:05;13.00;99.90
22418;DHT22;11376;50.932;4.442;2023-05-19T07:14:31;13.00;99.90
22418;DHT22;11376;50.932;4.442;2023-05-19T07:16:56;13.20;99.90
22418;DHT22;11376;50.932;4.442;2023-05-19T07:19:22;13.20;99.90
22418;DHT22;11376;50.932;4.442;2023-05-19T07:21:48;13.30;99.90
22418;DHT22;11376;50.932;4.442;2023-05-19T07:24:15;13.50;99.90
22418;DHT22;11376;50.932;4.442;2023-05-19T07:26:41;13.50;99.90
22418;DHT22;11376;50.932;4.442;2023-05-19T07:29:07;13.60;99.90
22418;DHT22;11376;50.932;4.442;2023-05-19T07:31:33;13.90;99.90
22418;DHT22;11376;50.932;4.442;2023-05-19T07:33:58;13.80;99.90
22418;DHT22;11376;50.932;4.442;2023-05-19T07:36:24;13.90;99.90
22418;DHT22;11376;50.932;4.442;2023-05-19T07:38:50;14.00;99.90
22418;DHT22;11376;50.932;4.442;2023-05-19T07:41:16;14.10;99.90
22418;DHT22;11376;50.932;4.442;2023-05-19T07:43:42;14.20;99.90
22418;DHT22;11376;50.932;4.442;2023-05-19T07:46:07;14.30;99.90
22418;DHT22;11376;50.932;4.442;2023-05-19T07:48:33;14.40;99.90
22418;DHT22;11376;50.932;4.442;2023-05-19T07:50:59;14.30;99.90
22418;DHT22;11376;50.932;4.442;2023-05-19T07:53:25;14.50;99.90
22418;DHT22;11376;50.932;4.442;2023-05-19T07:55:51;14.50;99.90
22418;DHT22;11376;50.932;4.442;2023-05-19T07:58:16;14.60;99.90
22418;DHT22;11376;50.932;4.442;2023-05-19T08:00:43;14.60;99.90
22418;DHT22;11376;50.932;4.442;2023-05-19T08:03:10;14.60;99.90
22418;DHT22;11376;50.932;4.442;2023-05-19T08:05:36;14.70;99.90
22418;DHT22;11376;50.932;4.442;2023-05-19T08:08:02;14.80;99.90
22418;DHT22;11376;50.932;4.442;2023-05-19T08:10:28;14.90;99.90
22418;DHT22;11376;50.932;4.442;2023-05-19T08:12:54;15.00;99.90
22418;DHT22;11376;50.932;4.442;2023-05-19T08:15:20;15.00;99.90
22418;DHT22;11376;50.932;4.442;2023-05-19T08:17:46;15.00;99.90
22418;DHT22;11376;50.932;4.442;2023-05-19T08:20:12;14.90;99.90
22418;DHT22;11376;50.932;4.442;2023-05-19T08:22:38;15.20;99.90
22418;DHT22;11376;50.932;4.442;2023-05-19T08:25:04;15.40;99.90
22418;DHT22;11376;50.932;4.442;2023-05-19T08:27:30;15.60;99.90
22418;DHT22;11376;50.932;4.442;2023-05-19T08:29:56;15.60;99.90
22418;DHT22;11376;50.932;4.442;2023-05-19T08:32:22;15.80;99.90
22418;DHT22;11376;50.932;4.442;2023-05-19T08:34:48;16.00;99.90
22418;DHT22;11376;50.932;4.442;2023-05-19T08:37:14;16.10;99.90
22418;DHT22;11376;50.932;4.442;2023-05-19T08:39:40;16.30;99.90
22418;DHT22;11376;50.932;4.442;2023-05-19T08:42:06;16.20;99.90
22418;DHT22;11376;50.932;4.442;2023-05-19T08:44:34;16.20;99.90
22418;DHT22;11376;50.932;4.442;2023-05-19T08:47:02;16.30;99.90
22418;DHT22;11376;50.932;4.442;2023-05-19T08:49:44;16.50;99.90
22418;DHT22;11376;50.932;4.442;2023-05-19T08:52:26;16.40;99.90
22418;DHT22;11376;50.932;4.442;2023-05-19T08:55:03;16.70;99.90
22418;DHT22;11376;50.932;4.442;2023-05-19T08:57:29;16.90;99.90
22418;DHT22;11376;50.932;4.442;2023-05-19T08:59:55;17.00;99.90
22418;DHT22;11376;50.932;4.442;2023-05-19T09:02:22;17.10;99.90
22418;DHT22;11376;50.932;4.442;2023-05-19T09:04:48;17.50;99.90
22418;DHT22;11376;50.932;4.442;2023-05-19T09:07:14;17.60;99.90
22418;DHT22;11376;50.932;4.442;2023-05-19T09:09:41;17.60;99.90
22418;DHT22;11376;50.932;4.442;2023-05-19T09:12:12;17.60;99.90
22418;DHT22;11376;50.932;4.442;2023-05-19T09:14:38;17.60;99.90
22418;DHT22;11376;50.932;4.442;2023-05-19T09:17:04;17.60;99.90
22418;DHT22;11376;50.932;4.442;2023-05-19T09:19:31;17.70;99.90
22418;DHT22;11376;50.932;4.442;2023-05-19T09:21:58;17.90;99.90
22418;DHT22;11376;50.932;4.442;2023-05-19T09:24:25;18.10;99.90
22418;DHT22;11376;50.932;4.442;2023-05-19T09:26:54;18.30;99.90
22418;DHT22;11376;50.932;4.442;2023-05-19T09:29:21;18.40;99.90
22418;DHT22;11376;50.932;4.442;2023-05-19T09:31:52;18.50;99.90
22418;DHT22;11376;50.932;4.442;2023-05-19T09:34:19;18.70;99.90
22418;DHT22;11376;50.932;4.442;2023-05-19T09:36:47;18.80;99.90
22418;DHT22;11376;50.932;4.442;2023-05-19T09:39:20;18.80;99.90
22418;DHT22;11376;50.932;4.442;2023-05-19T09:41:49;18.60;99.90
22418;DHT22;11376;50.932;4.442;2023-05-19T09:44:22;18.90;99.90
22418;DHT22;11376;50.932;4.442;2023-05-19T09:46:52;19.20;99.90
22418;DHT22;11376;50.932;4.442;2023-05-19T09:49:25;19.40;99.90
22418;DHT22;11376;50.932;4.442;2023-05-19T09:51:57;19.40;99.90
22418;DHT22;11376;50.932;4.442;2023-05-19T09:54:24;19.40;99.90
22418;DHT22;11376;50.932;4.442;2023-05-19T09:57:00;19.60;99.90
22418;DHT22;11376;50.932;4.442;2023-05-19T09:59:27;19.80;99.90
22418;DHT22;11376;50.932;4.442;2023-05-19T10:01:57;19.90;99.90
22418;DHT22;11376;50.932;4.442;2023-05-19T10:04:26;19.90;99.90
22418;DHT22;11376;50.932;4.442;2023-05-19T10:06:53;19.90;99.90
22418;DHT22;11376;50.932;4.442;2023-05-19T10:09:24;20.10;99.90
22418;DHT22;11376;50.932;4.442;2023-05-19T10:11:55;20.40;99.90
22418;DHT22;11376;50.932;4.442;2023-05-19T10:14:28;20.50;99.90
22418;DHT22;11376;50.932;4.442;2023-05-19T10:16:56;20.80;99.90
22418;DHT22;11376;50.932;4.442;2023-05-19T10:19:24;20.70;99.90
22418;DHT22;11376;50.932;4.442;2023-05-19T10:21:51;20.70;99.90
22418;DHT22;11376;50.932;4.442;2023-05-19T10:24:18;21.10;99.90
22418;DHT22;11376;50.932;4.442;2023-05-19T10:27:00;21.10;99.90
22418;DHT22;11376;50.932;4.442;2023-05-19T10:29:30;21.30;99.90
22418;DHT22;11376;50.932;4.442;2023-05-19T10:31:59;21.30;99.90
22418;DHT22;11376;50.932;4.442;2023-05-19T10:38:15;21.30;99.90
22418;DHT22;11376;50.932;4.442;2023-05-19T10:40:40;21.60;99.90
22418;DHT22;11376;50.932;4.442;2023-05-19T10:45:47;21.90;99.90
22418;DHT22;11376;50.932;4.442;2023-05-19T10:48:14;21.90;99.90
22418;DHT22;11376;50.932;4.442;2023-05-19T10:50:43;21.90;99.90
22418;DHT22;11376;50.932;4.442;2023-05-19T10:53:16;22.10;99.90
22418;DHT22;11376;50.932;4.442;2023-05-19T10:55:54;21.90;99.90
22418;DHT22;11376;50.932;4.442;2023-05-19T10:58:37;22.10;99.90
22418;DHT22;11376;50.932;4.442;2023-05-19T11:01:13;22.50;98.90
22418;DHT22;11376;50.932;4.442;2023-05-19T11:03:51;22.70;98.10
22418;DHT22;11376;50.932;4.442;2023-05-19T11:06:25;23.90;97.40
22418;DHT22;11376;50.932;4.442;2023-05-19T11:08:59;24.70;95.30
22418;DHT22;11376;50.932;4.442;2023-05-19T11:11:26;25.00;93.30
22418;DHT22;11376;50.932;4.442;2023-05-19T11:13:54;25.50;92.70
22418;DHT22;11376;50.932;4.442;2023-05-19T11:16:31;27.60;89.90
22418;DHT22;11376;50.932;4.442;2023-05-19T11:19:00;29.50;78.70
22418;DHT22;11376;50.932;4.442;2023-05-19T11:21:49;30.30;68.60
22418;DHT22;11376;50.932;4.442;2023-05-19T11:24:45;30.60;61.60
22418;DHT22;11376;50.932;4.442;2023-05-19T11:27:33;31.90;57.20
22418;DHT22;11376;50.932;4.442;2023-05-19T11:32:34;32.90;50.50
22418;DHT22;11376;50.932;4.442;2023-05-19T11:35:04;33.30;49.00
22418;DHT22;11376;50.932;4.442;2023-05-19T11:37:33;34.70;45.40
22418;DHT22;11376;50.932;4.442;2023-05-19T11:40:00;34.60;42.70
22418;DHT22;11376;50.932;4.442;2023-05-19T11:42:26;34.00;43.20
22418;DHT22;11376;50.932;4.442;2023-05-19T11:44:55;33.20;43.30
22418;DHT22;11376;50.932;4.442;2023-05-19T11:47:21;32.50;43.40
22418;DHT22;11376;50.932;4.442;2023-05-19T11:49:47;31.90;44.70
22418;DHT22;11376;50.932;4.442;2023-05-19T11:52:13;32.20;44.40
22418;DHT22;11376;50.932;4.442;2023-05-19T11:54:39;32.90;43.00
22418;DHT22;11376;50.932;4.442;2023-05-19T11:57:08;34.30;42.40
22418;DHT22;11376;50.932;4.442;2023-05-19T11:59:36;35.10;39.70
22418;DHT22;11376;50.932;4.442;2023-05-19T12:02:23;36.20;38.10
22418;DHT22;11376;50.932;4.442;2023-05-19T12:04:50;37.20;36.70
22418;DHT22;11376;50.932;4.442;2023-05-19T12:07:18;35.70;37.90
22418;DHT22;11376;50.932;4.442;2023-05-19T12:09:45;34.70;38.30
22418;DHT22;11376;50.932;4.442;2023-05-19T12:12:19;34.00;39.10
22418;DHT22;11376;50.932;4.442;2023-05-19T12:14:46;32.10;40.20
22418;DHT22;11376;50.932;4.442;2023-05-19T12:17:14;30.10;42.40
22418;DHT22;11376;50.932;4.442;2023-05-19T12:19:42;30.20;43.40
22418;DHT22;11376;50.932;4.442;2023-05-19T12:22:09;31.50;41.90
22418;DHT22;11376;50.932;4.442;2023-05-19T12:24:36;32.60;40.40
22418;DHT22;11376;50.932;4.442;2023-05-19T12:29:39;34.50;37.80
22418;DHT22;11376;50.932;4.442;2023-05-19T12:32:09;35.30;36.30
22418;DHT22;11376;50.932;4.442;2023-05-19T12:34:36;35.40;37.00
22418;DHT22;11376;50.932;4.442;2023-05-19T12:37:05;36.10;36.00
22418;DHT22;11376;50.932;4.442;2023-05-19T12:39:32;36.80;34.80
22418;DHT22;11376;50.932;4.442;2023-05-19T12:42:02;37.70;34.30
22418;DHT22;11376;50.932;4.442;2023-05-19T12:44:28;38.30;32.90
22418;DHT22;11376;50.932;4.442;2023-05-19T12:46:56;38.20;33.20
22418;DHT22;11376;50.932;4.442;2023-05-19T12:49:22;38.20;32.80
22418;DHT22;11376;50.932;4.442;2023-05-19T12:51:52;37.60;31.60
22418;DHT22;11376;50.932;4.442;2023-05-19T12:54:22;36.90;33.30
22418;DHT22;11376;50.932;4.442;2023-05-19T12:56:51;38.20;32.60
22418;DHT22;11376;50.932;4.442;2023-05-19T12:59:23;39.00;31.10
22418;DHT22;11376;50.932;4.442;2023-05-19T13:01:57;38.30;31.10
22418;DHT22;11376;50.932;4.442;2023-05-19T13:04:23;38.20;30.50
22418;DHT22;11376;50.932;4.442;2023-05-19T13:06:49;37.90;30.60
22418;DHT22;11376;50.932;4.442;2023-05-19T13:09:15;38.20;30.00
22418;DHT22;11376;50.932;4.442;2023-05-19T13:11:42;38.20;29.80
22418;DHT22;11376;50.932;4.442;2023-05-19T13:14:09;37.70;30.20
22418;DHT22;11376;50.932;4.442;2023-05-19T13:16:34;36.70;31.40
22418;DHT22;11376;50.932;4.442;2023-05-19T13:19:00;36.40;31.40
22418;DHT22;11376;50.932;4.442;2023-05-19T13:21:26;35.20;32.90
22418;DHT22;11376;50.932;4.442;2023-05-19T13:23:52;35.10;32.70
22418;DHT22;11376;50.932;4.442;2023-05-19T13:26:18;34.30;32.70
22418;DHT22;11376;50.932;4.442;2023-05-19T13:28:44;34.50;32.30
22418;DHT22;11376;50.932;4.442;2023-05-19T13:31:09;34.10;31.00
22418;DHT22;11376;50.932;4.442;2023-05-19T13:33:35;34.00;33.60
22418;DHT22;11376;50.932;4.442;2023-05-19T13:36:01;34.90;32.90
22418;DHT22;11376;50.932;4.442;2023-05-19T13:38:26;35.80;31.80
22418;DHT22;11376;50.932;4.442;2023-05-19T13:40:54;35.90;32.10
22418;DHT22;11376;50.932;4.442;2023-05-19T13:43:20;35.90;32.90
22418;DHT22;11376;50.932;4.442;2023-05-19T13:45:46;35.00;33.50
22418;DHT22;11376;50.932;4.442;2023-05-19T13:48:12;33.20;34.60
22418;DHT22;11376;50.932;4.442;2023-05-19T13:50:37;31.80;35.30
22418;DHT22;11376;50.932;4.442;2023-05-19T13:53:03;32.00;35.90
22418;DHT22;11376;50.932;4.442;2023-05-19T13:55:29;32.30;35.30
22418;DHT22;11376;50.932;4.442;2023-05-19T13:57:55;32.50;35.50
22418;DHT22;11376;50.932;4.442;2023-05-19T14:00:21;32.20;36.00
22418;DHT22;11376;50.932;4.442;2023-05-19T14:02:46;32.40;36.10
22418;DHT22;11376;50.932;4.442;2023-05-19T14:05:12;32.50;35.50
22418;DHT22;11376;50.932;4.442;2023-05-19T14:07:38;32.60;36.30
22418;DHT22;11376;50.932;4.442;2023-05-19T14:10:04;32.40;35.50
22418;DHT22;11376;50.932;4.442;2023-05-19T14:12:31;31.80;36.10
22418;DHT22;11376;50.932;4.442;2023-05-19T14:14:57;31.50;36.70
22418;DHT22;11376;50.932;4.442;2023-05-19T14:17:26;31.50;37.00
22418;DHT22;11376;50.932;4.442;2023-05-19T14:19:52;32.10;36.50
22418;DHT22;11376;50.932;4.442;2023-05-19T14:22:18;32.70;35.90
22418;DHT22;11376;50.932;4.442;2023-05-19T14:24:44;32.10;35.80
22418;DHT22;11376;50.932;4.442;2023-05-19T14:27:09;30.90;37.50
22418;DHT22;11376;50.932;4.442;2023-05-19T14:29:35;29.60;38.60
22418;DHT22;11376;50.932;4.442;2023-05-19T14:32:01;29.10;40.10
22418;DHT22;11376;50.932;4.442;2023-05-19T14:34:28;29.60;39.70
22418;DHT22;11376;50.932;4.442;2023-05-19T14:36:53;30.10;38.80
22418;DHT22;11376;50.932;4.442;2023-05-19T14:39:19;29.70;39.20
22418;DHT22;11376;50.932;4.442;2023-05-19T14:41:45;29.20;38.80
22418;DHT22;11376;50.932;4.442;2023-05-19T14:44:11;28.10;40.10
22418;DHT22;11376;50.932;4.442;2023-05-19T14:46:37;27.70;40.90
22418;DHT22;11376;50.932;4.442;2023-05-19T14:49:02;28.00;41.40
22418;DHT22;11376;50.932;4.442;2023-05-19T14:51:30;28.90;39.30
22418;DHT22;11376;50.932;4.442;2023-05-19T14:53:56;29.70;38.00
22418;DHT22;11376;50.932;4.442;2023-05-19T14:56:22;30.70;37.60
22418;DHT22;11376;50.932;4.442;2023-05-19T14:58:48;30.70;37.40
22418;DHT22;11376;50.932;4.442;2023-05-19T15:01:14;30.60;37.30
22418;DHT22;11376;50.932;4.442;2023-05-19T15:03:39;30.80;37.40
22418;DHT22;11376;50.932;4.442;2023-05-19T15:06:09;31.40;37.00
22418;DHT22;11376;50.932;4.442;2023-05-19T15:08:35;32.30;35.20
22418;DHT22;11376;50.932;4.442;2023-05-19T15:11:02;32.70;34.90
22418;DHT22;11376;50.932;4.442;2023-05-19T15:13:28;33.40;34.30
22418;DHT22;11376;50.932;4.442;2023-05-19T15:15:54;33.20;33.20
22418;DHT22;11376;50.932;4.442;2023-05-19T15:18:20;33.30;32.90
22418;DHT22;11376;50.932;4.442;2023-05-19T15:20:47;33.50;32.80
22418;DHT22;11376;50.932;4.442;2023-05-19T15:23:12;33.70;32.90
22418;DHT22;11376;50.932;4.442;2023-05-19T15:25:38;33.80;33.10
22418;DHT22;11376;50.932;4.442;2023-05-19T15:28:04;33.00;33.30
22418;DHT22;11376;50.932;4.442;2023-05-19T15:30:30;32.70;33.30
22418;DHT22;11376;50.932;4.442;2023-05-19T15:32:56;33.00;34.00
22418;DHT22;11376;50.932;4.442;2023-05-19T15:35:21;34.00;32.70
22418;DHT22;11376;50.932;4.442;2023-05-19T15:37:47;34.20;32.30
22418;DHT22;11376;50.932;4.442;2023-05-19T15:40:13;33.60;32.70
22418;DHT22;11376;50.932;4.442;2023-05-19T15:42:38;33.30;33.30
22418;DHT22;11376;50.932;4.442;2023-05-19T15:45:05;33.60;33.30
22418;DHT22;11376;50.932;4.442;2023-05-19T15:47:32;33.80;32.40
22418;DHT22;11376;50.932;4.442;2023-05-19T15:49:58;33.10;33.00
22418;DHT22;11376;50.932;4.442;2023-05-19T15:52:23;32.30;33.60
22418;DHT22;11376;50.932;4.442;2023-05-19T15:54:49;32.60;33.50
22418;DHT22;11376;50.932;4.442;2023-05-19T15:57:15;32.60;33.30
22418;DHT22;11376;50.932;4.442;2023-05-19T15:59:40;32.90;33.70
22418;DHT22;11376;50.932;4.442;2023-05-19T16:02:06;33.60;32.50
22418;DHT22;11376;50.932;4.442;2023-05-19T16:04:32;33.70;32.60
22418;DHT22;11376;50.932;4.442;2023-05-19T16:06:58;33.50;32.90
22418;DHT22;11376;50.932;4.442;2023-05-19T16:09:24;32.80;33.30